M-RH(METAR)
04/24 09:00
METAR M-RH 240000Z 00000KT 9999 -RA FEW015 SCT050 OVC100 17/16 Q1013
RMK 1CU015 3SC050 8AS100 A2992 WIND EST=
戻る
トップページへ戻る
IMOC Co,.Ltd.